sensor_id;sensor_type;location;lat;lon;timestamp;noise_LAeq;noise_LA_min;noise_LA_max;noise_LA01;noise_LA95
45651;Laerm;31365;48.858;8.530;2023-07-13T00:01:16;38.65;30.89;43.94;;
45651;Laerm;31365;48.858;8.530;2023-07-13T00:03:46;41.42;32.93;45.77;;
45651;Laerm;31365;48.858;8.530;2023-07-13T00:06:15;38.95;31.68;43.09;;
45651;Laerm;31365;48.858;8.530;2023-07-13T00:08:44;39.07;31.68;43.90;;
45651;Laerm;31365;48.858;8.530;2023-07-13T00:11:15;53.73;33.44;72.13;;
45651;Laerm;31365;48.858;8.530;2023-07-13T00:13:44;46.35;32.93;70.75;;
45651;Laerm;31365;48.858;8.530;2023-07-13T00:16:13;43.92;32.35;66.27;;
45651;Laerm;31365;48.858;8.530;2023-07-13T00:18:41;52.71;31.68;74.66;;
45651;Laerm;31365;48.858;8.530;2023-07-13T00:21:12;38.26;29.92;42.71;;
45651;Laerm;31365;48.858;8.530;2023-07-13T00:23:42;38.54;29.92;42.71;;
45651;Laerm;31365;48.858;8.530;2023-07-13T00:26:12;38.64;30.89;42.71;;
45651;Laerm;31365;48.858;8.530;2023-07-13T00:28:41;38.96;30.89;44.07;;
45651;Laerm;31365;48.858;8.530;2023-07-13T00:31:12;51.88;31.68;70.25;;
45651;Laerm;31365;48.858;8.530;2023-07-13T00:33:43;44.88;30.89;61.69;;
45651;Laerm;31365;48.858;8.530;2023-07-13T00:36:13;45.35;30.89;64.42;;
45651;Laerm;31365;48.858;8.530;2023-07-13T00:38:42;47.26;30.89;66.49;;
45651;Laerm;31365;48.858;8.530;2023-07-13T00:41:10;39.35;31.68;44.58;;
45651;Laerm;31365;48.858;8.530;2023-07-13T00:43:40;50.30;29.92;67.80;;
45651;Laerm;31365;48.858;8.530;2023-07-13T00:46:24;38.63;30.89;45.66;;
45651;Laerm;31365;48.858;8.530;2023-07-13T00:48:58;53.72;30.89;74.53;;
45651;Laerm;31365;48.858;8.530;2023-07-13T00:51:34;41.27;31.68;54.22;;
45651;Laerm;31365;48.858;8.530;2023-07-13T00:54:08;40.28;34.31;47.57;;
45651;Laerm;31365;48.858;8.530;2023-07-13T00:56:39;38.60;30.89;46.23;;
45651;Laerm;31365;48.858;8.530;2023-07-13T00:59:11;38.56;28.67;42.76;;
45651;Laerm;31365;48.858;8.530;2023-07-13T01:01:41;38.86;31.68;48.10;;
45651;Laerm;31365;48.858;8.530;2023-07-13T01:04:12;38.55;28.67;51.58;;
45651;Laerm;31365;48.858;8.530;2023-07-13T01:06:43;38.47;30.89;44.94;;
45651;Laerm;31365;48.858;8.530;2023-07-13T01:09:15;38.89;29.57;46.64;;
45651;Laerm;31365;48.858;8.530;2023-07-13T01:11:46;39.10;32.93;43.72;;
45651;Laerm;31365;48.858;8.530;2023-07-13T01:14:15;38.34;31.68;44.62;;
45651;Laerm;31365;48.858;8.530;2023-07-13T01:16:47;39.17;31.68;53.71;;
45651;Laerm;31365;48.858;8.530;2023-07-13T01:19:33;38.99;31.68;51.91;;
45651;Laerm;31365;48.858;8.530;2023-07-13T01:22:08;39.59;32.35;54.04;;
45651;Laerm;31365;48.858;8.530;2023-07-13T01:24:41;39.31;32.93;43.24;;
45651;Laerm;31365;48.858;8.530;2023-07-13T01:27:13;41.87;32.35;58.49;;
45651;Laerm;31365;48.858;8.530;2023-07-13T01:29:44;54.31;33.90;76.92;;
45651;Laerm;31365;48.858;8.530;2023-07-13T01:32:18;62.33;33.44;83.26;;
45651;Laerm;31365;48.858;8.530;2023-07-13T01:34:51;39.67;32.35;44.97;;
45651;Laerm;31365;48.858;8.530;2023-07-13T01:37:24;38.43;31.68;42.00;;
45651;Laerm;31365;48.858;8.530;2023-07-13T01:39:52;39.42;32.35;42.35;;
45651;Laerm;31365;48.858;8.530;2023-07-13T01:42:21;39.74;32.35;44.03;;
45651;Laerm;31365;48.858;8.530;2023-07-13T01:44:50;51.35;31.68;72.52;;
45651;Laerm;31365;48.858;8.530;2023-07-13T01:47:18;39.12;32.35;47.48;;
45651;Laerm;31365;48.858;8.530;2023-07-13T01:49:47;54.64;32.93;77.47;;
45651;Laerm;31365;48.858;8.530;2023-07-13T01:52:15;57.22;29.92;78.37;;
45651;Laerm;31365;48.858;8.530;2023-07-13T01:54:45;38.72;32.93;44.35;;
45651;Laerm;31365;48.858;8.530;2023-07-13T01:57:16;49.15;30.54;69.04;;
45651;Laerm;31365;48.858;8.530;2023-07-13T01:59:45;50.47;32.93;69.37;;
45651;Laerm;31365;48.858;8.530;2023-07-13T02:02:14;39.36;31.68;44.03;;
45651;Laerm;31365;48.858;8.530;2023-07-13T02:04:42;38.64;29.92;43.34;;
45651;Laerm;31365;48.858;8.530;2023-07-13T02:07:11;40.17;30.89;62.96;;
45651;Laerm;31365;48.858;8.530;2023-07-13T02:09:40;55.30;32.35;77.65;;
45651;Laerm;31365;48.858;8.530;2023-07-13T02:12:10;41.39;31.68;55.11;;
45651;Laerm;31365;48.858;8.530;2023-07-13T02:14:39;38.42;28.67;47.08;;
45651;Laerm;31365;48.858;8.530;2023-07-13T02:17:10;38.76;30.89;43.99;;
45651;Laerm;31365;48.858;8.530;2023-07-13T02:19:39;52.65;32.93;72.21;;
45651;Laerm;31365;48.858;8.530;2023-07-13T02:22:08;40.88;32.35;58.14;;
45651;Laerm;31365;48.858;8.530;2023-07-13T02:24:37;55.12;31.68;74.73;;
45651;Laerm;31365;48.858;8.530;2023-07-13T02:27:06;38.59;32.35;44.43;;
45651;Laerm;31365;48.858;8.530;2023-07-13T02:29:36;38.87;31.68;45.51;;
45651;Laerm;31365;48.858;8.530;2023-07-13T02:32:07;63.74;33.90;85.46;;
45651;Laerm;31365;48.858;8.530;2023-07-13T02:34:35;51.54;32.35;72.50;;
45651;Laerm;31365;48.858;8.530;2023-07-13T02:37:05;50.90;33.44;72.84;;
45651;Laerm;31365;48.858;8.530;2023-07-13T02:39:35;41.24;32.35;48.00;;
45651;Laerm;31365;48.858;8.530;2023-07-13T02:42:04;42.91;33.90;58.83;;
45651;Laerm;31365;48.858;8.530;2023-07-13T02:44:35;49.82;34.69;70.26;;
45651;Laerm;31365;48.858;8.530;2023-07-13T02:47:04;59.94;34.31;81.14;;
45651;Laerm;31365;48.858;8.530;2023-07-13T02:49:33;56.50;33.90;77.80;;
45651;Laerm;31365;48.858;8.530;2023-07-13T02:52:03;52.66;32.35;73.08;;
45651;Laerm;31365;48.858;8.530;2023-07-13T02:54:31;39.23;32.35;46.69;;
45651;Laerm;31365;48.858;8.530;2023-07-13T02:57:00;38.98;32.35;45.69;;
45651;Laerm;31365;48.858;8.530;2023-07-13T02:59:28;54.83;31.68;76.62;;
45651;Laerm;31365;48.858;8.530;2023-07-13T03:02:01;50.31;32.93;70.70;;
45651;Laerm;31365;48.858;8.530;2023-07-13T03:04:29;53.49;33.44;73.81;;
45651;Laerm;31365;48.858;8.530;2023-07-13T03:06:58;56.36;36.45;76.72;;
45651;Laerm;31365;48.858;8.530;2023-07-13T03:09:35;44.01;34.31;56.44;;
45651;Laerm;31365;48.858;8.530;2023-07-13T03:12:07;50.17;34.69;69.57;;
45651;Laerm;31365;48.858;8.530;2023-07-13T03:14:36;56.18;36.91;76.55;;
45651;Laerm;31365;48.858;8.530;2023-07-13T03:17:07;57.61;36.20;74.73;;
45651;Laerm;31365;48.858;8.530;2023-07-13T03:19:39;60.80;39.92;79.06;;
45651;Laerm;31365;48.858;8.530;2023-07-13T03:22:08;59.14;38.05;75.47;;
45651;Laerm;31365;48.858;8.530;2023-07-13T03:24:39;56.11;37.12;75.96;;
45651;Laerm;31365;48.858;8.530;2023-07-13T03:27:08;55.17;38.05;72.99;;
45651;Laerm;31365;48.858;8.530;2023-07-13T03:29:40;56.81;38.81;74.13;;
45651;Laerm;31365;48.858;8.530;2023-07-13T03:32:28;61.75;38.81;82.74;;
45651;Laerm;31365;48.858;8.530;2023-07-13T03:34:57;57.37;38.67;73.95;;
45651;Laerm;31365;48.858;8.530;2023-07-13T03:37:28;58.24;38.37;74.02;;
45651;Laerm;31365;48.858;8.530;2023-07-13T03:39:57;58.08;38.37;72.91;;
45651;Laerm;31365;48.858;8.530;2023-07-13T03:43:20;55.61;37.70;73.45;;
45651;Laerm;31365;48.858;8.530;2023-07-13T03:45:49;61.70;39.58;78.99;;
45651;Laerm;31365;48.858;8.530;2023-07-13T03:48:19;60.47;38.67;75.92;;
45651;Laerm;31365;48.858;8.530;2023-07-13T03:50:48;59.12;38.52;78.14;;
45651;Laerm;31365;48.858;8.530;2023-07-13T03:53:17;61.55;39.46;78.13;;
45651;Laerm;31365;48.858;8.530;2023-07-13T03:55:47;61.47;39.58;79.83;;
45651;Laerm;31365;48.858;8.530;2023-07-13T03:58:32;57.04;37.88;74.93;;
45651;Laerm;31365;48.858;8.530;2023-07-13T04:01:11;60.80;40.79;76.87;;
45651;Laerm;31365;48.858;8.530;2023-07-13T04:03:41;63.60;43.94;82.87;;
45651;Laerm;31365;48.858;8.530;2023-07-13T04:06:16;60.04;41.14;75.94;;
45651;Laerm;31365;48.858;8.530;2023-07-13T04:08:51;61.32;39.21;78.49;;
45651;Laerm;31365;48.858;8.530;2023-07-13T04:11:23;56.27;37.17;78.73;;
45651;Laerm;31365;48.858;8.530;2023-07-13T04:13:52;62.64;40.33;80.39;;
45651;Laerm;31365;48.858;8.530;2023-07-13T04:16:22;59.98;39.08;77.43;;
45651;Laerm;31365;48.858;8.530;2023-07-13T04:18:52;57.43;37.12;77.93;;
45651;Laerm;31365;48.858;8.530;2023-07-13T04:21:22;58.51;37.70;73.96;;
45651;Laerm;31365;48.858;8.530;2023-07-13T04:23:50;64.04;39.70;78.29;;
45651;Laerm;31365;48.858;8.530;2023-07-13T04:28:48;62.62;40.33;78.39;;
45651;Laerm;31365;48.858;8.530;2023-07-13T04:33:46;64.49;41.82;81.86;;
45651;Laerm;31365;48.858;8.530;2023-07-13T04:36:17;64.95;44.15;79.96;;
45651;Laerm;31365;48.858;8.530;2023-07-13T04:38:45;64.36;39.70;81.21;;
45651;Laerm;31365;48.858;8.530;2023-07-13T04:41:14;65.25;43.09;80.04;;
45651;Laerm;31365;48.858;8.530;2023-07-13T04:43:43;64.92;42.98;83.12;;
45651;Laerm;31365;48.858;8.530;2023-07-13T04:48:44;68.14;42.65;86.28;;
45651;Laerm;31365;48.858;8.530;2023-07-13T04:51:15;64.92;42.35;78.61;;
45651;Laerm;31365;48.858;8.530;2023-07-13T04:53:44;61.69;39.81;79.02;;
45651;Laerm;31365;48.858;8.530;2023-07-13T04:56:13;64.99;44.07;79.69;;
45651;Laerm;31365;48.858;8.530;2023-07-13T04:58:41;62.83;40.33;78.97;;
45651;Laerm;31365;48.858;8.530;2023-07-13T05:01:10;64.06;42.35;78.20;;
45651;Laerm;31365;48.858;8.530;2023-07-13T05:03:41;62.47;40.80;78.58;;
45651;Laerm;31365;48.858;8.530;2023-07-13T05:06:10;67.61;41.06;85.10;;
45651;Laerm;31365;48.858;8.530;2023-07-13T05:08:40;63.80;41.96;76.37;;
45651;Laerm;31365;48.858;8.530;2023-07-13T05:11:09;62.62;40.89;76.50;;
45651;Laerm;31365;48.858;8.530;2023-07-13T05:13:39;63.07;40.80;78.44;;
45651;Laerm;31365;48.858;8.530;2023-07-13T05:16:08;64.76;42.76;84.47;;
45651;Laerm;31365;48.858;8.530;2023-07-13T05:18:37;63.81;42.16;78.11;;
45651;Laerm;31365;48.858;8.530;2023-07-13T05:21:11;66.09;42.09;82.43;;
45651;Laerm;31365;48.858;8.530;2023-07-13T05:23:41;63.95;40.63;81.56;;
45651;Laerm;31365;48.858;8.530;2023-07-13T05:26:11;64.67;42.09;79.53;;
45651;Laerm;31365;48.858;8.530;2023-07-13T05:28:39;64.49;43.72;78.21;;
45651;Laerm;31365;48.858;8.530;2023-07-13T05:31:09;64.80;40.71;77.76;;
45651;Laerm;31365;48.858;8.530;2023-07-13T05:33:39;63.14;42.35;76.73;;
45651;Laerm;31365;48.858;8.530;2023-07-13T05:36:08;60.39;39.70;77.64;;
45651;Laerm;31365;48.858;8.530;2023-07-13T05:38:36;61.92;40.80;74.21;;
45651;Laerm;31365;48.858;8.530;2023-07-13T05:41:07;64.08;41.22;83.83;;
45651;Laerm;31365;48.858;8.530;2023-07-13T05:43:36;66.55;43.09;84.83;;
45651;Laerm;31365;48.858;8.530;2023-07-13T05:46:04;61.03;41.68;76.10;;
45651;Laerm;31365;48.858;8.530;2023-07-13T05:48:33;62.78;39.81;77.62;;
45651;Laerm;31365;48.858;8.530;2023-07-13T05:51:02;63.51;41.82;81.57;;
45651;Laerm;31365;48.858;8.530;2023-07-13T05:53:31;64.65;40.98;79.78;;
45651;Laerm;31365;48.858;8.530;2023-07-13T05:55:59;63.35;40.89;76.89;;
45651;Laerm;31365;48.858;8.530;2023-07-13T05:58:31;57.93;39.35;76.97;;
45651;Laerm;31365;48.858;8.530;2023-07-13T06:01:03;63.19;41.22;75.39;;
45651;Laerm;31365;48.858;8.530;2023-07-13T06:03:32;61.52;40.53;74.77;;
45651;Laerm;31365;48.858;8.530;2023-07-13T06:06:02;61.89;39.46;76.35;;
45651;Laerm;31365;48.858;8.530;2023-07-13T06:08:31;64.50;41.82;76.84;;
45651;Laerm;31365;48.858;8.530;2023-07-13T06:11:05;62.23;40.33;76.48;;
45651;Laerm;31365;48.858;8.530;2023-07-13T06:13:36;62.12;42.47;75.71;;
45651;Laerm;31365;48.858;8.530;2023-07-13T06:16:05;63.55;41.61;79.06;;
45651;Laerm;31365;48.858;8.530;2023-07-13T06:18:36;63.57;38.87;80.58;;
45651;Laerm;31365;48.858;8.530;2023-07-13T06:21:09;70.26;40.71;92.80;;
45651;Laerm;31365;48.858;8.530;2023-07-13T06:23:59;64.01;43.72;84.07;;
45651;Laerm;31365;48.858;8.530;2023-07-13T06:26:28;58.39;39.08;72.60;;
45651;Laerm;31365;48.858;8.530;2023-07-13T06:28:58;62.88;41.06;78.19;;
45651;Laerm;31365;48.858;8.530;2023-07-13T06:31:27;61.92;43.44;75.46;;
45651;Laerm;31365;48.858;8.530;2023-07-13T06:33:56;64.84;42.03;81.36;;
45651;Laerm;31365;48.858;8.530;2023-07-13T06:36:25;62.05;43.19;83.55;;
45651;Laerm;31365;48.858;8.530;2023-07-13T06:38:54;62.15;41.38;80.79;;
45651;Laerm;31365;48.858;8.530;2023-07-13T06:41:23;64.93;42.09;83.11;;
45651;Laerm;31365;48.858;8.530;2023-07-13T06:43:53;62.56;40.98;83.65;;
45651;Laerm;31365;48.858;8.530;2023-07-13T06:46:24;63.21;40.53;79.92;;
45651;Laerm;31365;48.858;8.530;2023-07-13T06:48:52;62.07;41.53;75.42;;
45651;Laerm;31365;48.858;8.530;2023-07-13T06:51:21;61.53;42.82;78.46;;
45651;Laerm;31365;48.858;8.530;2023-07-13T06:53:49;61.81;41.61;73.57;;
45651;Laerm;31365;48.858;8.530;2023-07-13T06:56:18;64.35;42.53;84.47;;
45651;Laerm;31365;48.858;8.530;2023-07-13T06:58:46;63.46;42.35;77.34;;
45651;Laerm;31365;48.858;8.530;2023-07-13T07:01:15;62.01;41.75;75.11;;
45651;Laerm;31365;48.858;8.530;2023-07-13T07:03:45;59.39;38.67;75.46;;
45651;Laerm;31365;48.858;8.530;2023-07-13T07:06:18;59.07;39.08;76.22;;
45651;Laerm;31365;48.858;8.530;2023-07-13T07:08:47;64.16;42.98;82.25;;
45651;Laerm;31365;48.858;8.530;2023-07-13T07:11:20;62.09;40.23;77.97;;
45651;Laerm;31365;48.858;8.530;2023-07-13T07:13:50;63.84;42.71;79.51;;
45651;Laerm;31365;48.858;8.530;2023-07-13T07:16:20;58.81;37.52;78.51;;
45651;Laerm;31365;48.858;8.530;2023-07-13T07:18:50;70.28;40.62;93.79;;
45651;Laerm;31365;48.858;8.530;2023-07-13T07:21:19;60.94;39.34;75.09;;
45651;Laerm;31365;48.858;8.530;2023-07-13T07:23:51;61.47;38.81;76.15;;
45651;Laerm;31365;48.858;8.530;2023-07-13T07:26:20;62.90;40.80;80.66;;
45651;Laerm;31365;48.858;8.530;2023-07-13T07:28:53;60.16;41.14;73.46;;
45651;Laerm;31365;48.858;8.530;2023-07-13T07:31:25;58.95;42.22;72.39;;
45651;Laerm;31365;48.858;8.530;2023-07-13T07:33:58;60.07;40.62;75.57;;
45651;Laerm;31365;48.858;8.530;2023-07-13T07:36:26;61.83;39.34;81.37;;
45651;Laerm;31365;48.858;8.530;2023-07-13T07:38:58;62.27;43.81;79.20;;
45651;Laerm;31365;48.858;8.530;2023-07-13T07:41:27;63.19;42.29;81.37;;
45651;Laerm;31365;48.858;8.530;2023-07-13T07:43:58;64.97;42.47;83.17;;
45651;Laerm;31365;48.858;8.530;2023-07-13T07:46:27;61.50;39.46;76.84;;
45651;Laerm;31365;48.858;8.530;2023-07-13T07:48:58;60.84;39.46;78.74;;
45651;Laerm;31365;48.858;8.530;2023-07-13T07:51:26;61.78;42.16;80.42;;
45651;Laerm;31365;48.858;8.530;2023-07-13T07:53:55;64.78;42.03;83.31;;
45651;Laerm;31365;48.858;8.530;2023-07-13T07:56:23;60.35;43.86;76.58;;
45651;Laerm;31365;48.858;8.530;2023-07-13T07:58:55;60.97;43.99;76.98;;
45651;Laerm;31365;48.858;8.530;2023-07-13T08:01:27;64.59;38.81;82.64;;
45651;Laerm;31365;48.858;8.530;2023-07-13T08:04:19;61.27;38.37;73.90;;
45651;Laerm;31365;48.858;8.530;2023-07-13T08:06:52;58.56;38.81;73.18;;
45651;Laerm;31365;48.858;8.530;2023-07-13T08:09:21;60.98;41.53;75.06;;
45651;Laerm;31365;48.858;8.530;2023-07-13T08:11:49;62.69;42.03;78.29;;
45651;Laerm;31365;48.858;8.530;2023-07-13T08:14:23;61.28;42.41;76.93;;
45651;Laerm;31365;48.858;8.530;2023-07-13T08:17:08;63.28;40.43;83.72;;
45651;Laerm;31365;48.858;8.530;2023-07-13T08:20:00;60.46;41.68;76.91;;
45651;Laerm;31365;48.858;8.530;2023-07-13T08:22:32;62.70;39.92;80.37;;
45651;Laerm;31365;48.858;8.530;2023-07-13T08:25:00;61.77;40.23;80.08;;
45651;Laerm;31365;48.858;8.530;2023-07-13T08:27:29;68.19;41.22;86.42;;
45651;Laerm;31365;48.858;8.530;2023-07-13T08:29:58;61.55;41.22;79.31;;
45651;Laerm;31365;48.858;8.530;2023-07-13T08:32:27;59.36;40.53;75.47;;
45651;Laerm;31365;48.858;8.530;2023-07-13T08:34:56;61.79;41.22;75.80;;
45651;Laerm;31365;48.858;8.530;2023-07-13T08:37:26;60.21;39.46;75.92;;
45651;Laerm;31365;48.858;8.530;2023-07-13T08:39:54;62.65;42.00;76.75;;
45651;Laerm;31365;48.858;8.530;2023-07-13T08:42:35;71.20;41.30;92.24;;
45651;Laerm;31365;48.858;8.530;2023-07-13T08:45:20;61.50;39.46;81.28;;
45651;Laerm;31365;48.858;8.530;2023-07-13T08:48:00;60.23;40.13;73.98;;
45651;Laerm;31365;48.858;8.530;2023-07-13T08:50:35;62.42;41.53;76.20;;
45651;Laerm;31365;48.858;8.530;2023-07-13T08:53:34;62.23;42.82;76.04;;
45651;Laerm;31365;48.858;8.530;2023-07-13T08:56:16;66.29;39.70;86.53;;
45651;Laerm;31365;48.858;8.530;2023-07-13T08:58:51;62.71;43.63;76.75;;
45651;Laerm;31365;48.858;8.530;2023-07-13T09:01:29;64.50;42.59;86.12;;
45651;Laerm;31365;48.858;8.530;2023-07-13T09:04:07;57.28;41.14;72.14;;
45651;Laerm;31365;48.858;8.530;2023-07-13T09:06:59;62.17;41.53;75.56;;
45651;Laerm;31365;48.858;8.530;2023-07-13T09:09:46;63.93;43.49;78.53;;
45651;Laerm;31365;48.858;8.530;2023-07-13T09:12:27;62.68;42.76;78.01;;
45651;Laerm;31365;48.858;8.530;2023-07-13T09:15:02;64.21;43.24;82.83;;
45651;Laerm;31365;48.858;8.530;2023-07-13T09:17:40;63.57;42.71;79.97;;
45651;Laerm;31365;48.858;8.530;2023-07-13T09:20:20;62.86;41.38;79.19;;
45651;Laerm;31365;48.858;8.530;2023-07-13T09:22:50;60.50;39.81;77.67;;
45651;Laerm;31365;48.858;8.530;2023-07-13T09:25:29;58.97;42.22;75.20;;
45651;Laerm;31365;48.858;8.530;2023-07-13T09:30:38;63.71;41.22;82.19;;
45651;Laerm;31365;48.858;8.530;2023-07-13T09:33:08;59.33;40.53;79.66;;
45651;Laerm;31365;48.858;8.530;2023-07-13T09:35:37;61.58;39.92;80.00;;
45651;Laerm;31365;48.858;8.530;2023-07-13T09:38:13;61.72;41.38;77.88;;
45651;Laerm;31365;48.858;8.530;2023-07-13T09:40:59;61.36;41.61;76.57;;
45651;Laerm;31365;48.858;8.530;2023-07-13T09:43:32;63.70;40.13;83.42;;
45651;Laerm;31365;48.858;8.530;2023-07-13T09:46:01;61.30;39.08;77.44;;
45651;Laerm;31365;48.858;8.530;2023-07-13T09:48:35;59.17;41.46;73.91;;
45651;Laerm;31365;48.858;8.530;2023-07-13T09:51:13;59.49;39.21;76.46;;
45651;Laerm;31365;48.858;8.530;2023-07-13T09:53:44;61.22;39.08;77.17;;
45651;Laerm;31365;48.858;8.530;2023-07-13T09:56:23;63.10;40.13;79.43;;
45651;Laerm;31365;48.858;8.530;2023-07-13T09:58:52;62.87;39.68;80.53;;
45651;Laerm;31365;48.858;8.530;2023-07-13T10:01:33;61.72;41.14;74.97;;
45651;Laerm;31365;48.858;8.530;2023-07-13T10:04:11;59.60;40.53;74.42;;
45651;Laerm;31365;48.858;8.530;2023-07-13T10:06:41;58.51;41.22;79.41;;
45651;Laerm;31365;48.858;8.530;2023-07-13T10:09:15;61.34;41.30;74.87;;
45651;Laerm;31365;48.858;8.530;2023-07-13T10:11:46;60.74;41.75;75.95;;
45651;Laerm;31365;48.858;8.530;2023-07-13T10:14:18;60.70;40.33;76.27;;
45651;Laerm;31365;48.858;8.530;2023-07-13T10:16:58;61.98;39.08;84.36;;
45651;Laerm;31365;48.858;8.530;2023-07-13T10:19:34;61.71;39.92;78.47;;
45651;Laerm;31365;48.858;8.530;2023-07-13T10:22:16;62.52;40.33;75.60;;
45651;Laerm;31365;48.858;8.530;2023-07-13T10:24:49;65.28;40.89;83.69;;
45651;Laerm;31365;48.858;8.530;2023-07-13T10:27:27;59.92;41.53;77.99;;
45651;Laerm;31365;48.858;8.530;2023-07-13T10:30:11;62.34;40.98;79.77;;
45651;Laerm;31365;48.858;8.530;2023-07-13T10:32:43;61.79;40.13;75.53;;
45651;Laerm;31365;48.858;8.530;2023-07-13T10:35:15;59.11;39.81;74.44;;
45651;Laerm;31365;48.858;8.530;2023-07-13T10:37:52;59.97;40.03;80.09;;
45651;Laerm;31365;48.858;8.530;2023-07-13T10:40:29;64.53;40.23;83.04;;
45651;Laerm;31365;48.858;8.530;2023-07-13T10:43:15;62.29;40.71;74.56;;
45651;Laerm;31365;48.858;8.530;2023-07-13T10:45:47;61.14;41.96;76.37;;
45651;Laerm;31365;48.858;8.530;2023-07-13T10:48:18;58.94;41.61;73.74;;
45651;Laerm;31365;48.858;8.530;2023-07-13T10:50:50;63.43;39.70;83.95;;
45651;Laerm;31365;48.858;8.530;2023-07-13T10:53:28;59.78;40.88;74.35;;
45651;Laerm;31365;48.858;8.530;2023-07-13T10:56:00;60.81;40.43;77.53;;
45651;Laerm;31365;48.858;8.530;2023-07-13T10:58:36;58.57;40.33;75.19;;
45651;Laerm;31365;48.858;8.530;2023-07-13T11:01:12;59.85;38.05;81.04;;
45651;Laerm;31365;48.858;8.530;2023-07-13T11:03:50;57.85;40.23;73.75;;
45651;Laerm;31365;48.858;8.530;2023-07-13T11:06:37;62.50;41.75;77.47;;
45651;Laerm;31365;48.858;8.530;2023-07-13T11:09:31;62.49;38.67;77.83;;
45651;Laerm;31365;48.858;8.530;2023-07-13T11:12:01;60.38;41.06;72.08;;
45651;Laerm;31365;48.858;8.530;2023-07-13T11:14:37;60.76;40.33;76.35;;
45651;Laerm;31365;48.858;8.530;2023-07-13T11:17:47;62.53;40.33;75.69;;
45651;Laerm;31365;48.858;8.530;2023-07-13T11:20:32;62.65;41.06;77.57;;
45651;Laerm;31365;48.858;8.530;2023-07-13T11:23:29;65.16;41.38;85.47;;
45651;Laerm;31365;48.858;8.530;2023-07-13T11:26:01;60.81;39.99;73.10;;
45651;Laerm;31365;48.858;8.530;2023-07-13T11:28:32;66.16;42.06;88.80;;
45651;Laerm;31365;48.858;8.530;2023-07-13T11:31:14;60.21;40.45;75.75;;
45651;Laerm;31365;48.858;8.530;2023-07-13T11:33:57;62.18;41.14;75.39;;
45651;Laerm;31365;48.858;8.530;2023-07-13T11:36:36;60.01;41.06;76.84;;
45651;Laerm;31365;48.858;8.530;2023-07-13T11:39:18;57.09;40.23;74.43;;
45651;Laerm;31365;48.858;8.530;2023-07-13T11:41:52;62.14;40.89;81.40;;
45651;Laerm;31365;48.858;8.530;2023-07-13T11:44:24;58.18;39.81;74.33;;
45651;Laerm;31365;48.858;8.530;2023-07-13T11:46:57;57.85;38.67;71.96;;
45651;Laerm;31365;48.858;8.530;2023-07-13T11:52:00;56.17;41.82;69.53;;
45651;Laerm;31365;48.858;8.530;2023-07-13T11:54:33;57.94;38.81;70.68;;
45651;Laerm;31365;48.858;8.530;2023-07-13T11:57:21;59.53;40.43;73.86;;
45651;Laerm;31365;48.858;8.530;2023-07-13T12:02:30;60.87;43.77;76.56;;
45651;Laerm;31365;48.858;8.530;2023-07-13T12:05:02;59.26;41.22;70.29;;
45651;Laerm;31365;48.858;8.530;2023-07-13T12:07:33;59.16;41.75;74.07;;
45651;Laerm;31365;48.858;8.530;2023-07-13T12:10:03;59.20;41.89;69.92;;
45651;Laerm;31365;48.858;8.530;2023-07-13T12:12:47;58.43;41.53;67.80;;
45651;Laerm;31365;48.858;8.530;2023-07-13T12:15:16;56.13;40.23;69.46;;
45651;Laerm;31365;48.858;8.530;2023-07-13T12:17:46;56.06;39.21;68.51;;
45651;Laerm;31365;48.858;8.530;2023-07-13T12:20:24;57.69;38.05;72.82;;
45651;Laerm;31365;48.858;8.530;2023-07-13T12:22:53;60.89;41.61;73.42;;
45651;Laerm;31365;48.858;8.530;2023-07-13T12:25:23;58.42;41.22;70.92;;
45651;Laerm;31365;48.858;8.530;2023-07-13T12:27:52;56.93;40.33;72.53;;
45651;Laerm;31365;48.858;8.530;2023-07-13T12:30:29;58.77;40.62;72.45;;
45651;Laerm;31365;48.858;8.530;2023-07-13T12:33:10;58.78;41.14;69.01;;
45651;Laerm;31365;48.858;8.530;2023-07-13T12:35:46;56.92;40.98;69.94;;
45651;Laerm;31365;48.858;8.530;2023-07-13T12:38:16;58.94;41.14;76.38;;
45651;Laerm;31365;48.858;8.530;2023-07-13T12:40:50;57.93;40.89;69.01;;
45651;Laerm;31365;48.858;8.530;2023-07-13T12:43:21;59.28;38.67;77.32;;
45651;Laerm;31365;48.858;8.530;2023-07-13T12:45:58;64.72;39.70;85.84;;
45651;Laerm;31365;48.858;8.530;2023-07-13T12:48:29;60.51;40.98;73.39;;
45651;Laerm;31365;48.858;8.530;2023-07-13T12:51:14;61.68;41.46;79.07;;
45651;Laerm;31365;48.858;8.530;2023-07-13T12:53:49;60.54;41.22;74.61;;
45651;Laerm;31365;48.858;8.530;2023-07-13T12:56:25;62.89;41.96;84.75;;
45651;Laerm;31365;48.858;8.530;2023-07-13T12:59:01;58.90;40.89;71.13;;
45651;Laerm;31365;48.858;8.530;2023-07-13T13:01:34;56.83;40.80;74.28;;
45651;Laerm;31365;48.858;8.530;2023-07-13T13:04:05;55.74;38.81;67.76;;
45651;Laerm;31365;48.858;8.530;2023-07-13T13:06:39;59.43;42.09;69.26;;
45651;Laerm;31365;48.858;8.530;2023-07-13T13:09:13;59.27;40.33;74.06;;
45651;Laerm;31365;48.858;8.530;2023-07-13T13:11:42;59.22;42.16;70.24;;
45651;Laerm;31365;48.858;8.530;2023-07-13T13:14:10;58.17;40.13;74.23;;
45651;Laerm;31365;48.858;8.530;2023-07-13T13:16:47;57.77;41.61;73.07;;
45651;Laerm;31365;48.858;8.530;2023-07-13T13:19:23;58.78;41.30;70.56;;
45651;Laerm;31365;48.858;8.530;2023-07-13T13:21:55;61.97;41.75;78.86;;
45651;Laerm;31365;48.858;8.530;2023-07-13T13:24:27;59.21;41.22;78.49;;
45651;Laerm;31365;48.858;8.530;2023-07-13T13:26:56;66.50;40.98;87.16;;
45651;Laerm;31365;48.858;8.530;2023-07-13T13:29:25;56.43;5.00;71.31;;
45651;Laerm;31365;48.858;8.530;2023-07-13T13:31:55;57.40;40.98;68.33;;
45651;Laerm;31365;48.858;8.530;2023-07-13T13:34:25;59.10;38.05;75.30;;
45651;Laerm;31365;48.858;8.530;2023-07-13T13:36:54;61.76;40.53;77.00;;
45651;Laerm;31365;48.858;8.530;2023-07-13T13:39:33;57.68;39.34;72.23;;
45651;Laerm;31365;48.858;8.530;2023-07-13T13:42:03;59.46;41.30;76.08;;
45651;Laerm;31365;48.858;8.530;2023-07-13T13:44:31;57.59;37.52;69.96;;
45651;Laerm;31365;48.858;8.530;2023-07-13T13:47:00;59.71;40.43;75.58;;
45651;Laerm;31365;48.858;8.530;2023-07-13T13:49:30;60.70;43.99;71.63;;
45651;Laerm;31365;48.858;8.530;2023-07-13T13:52:00;58.44;38.67;69.91;;
45651;Laerm;31365;48.858;8.530;2023-07-13T13:54:28;60.30;37.32;78.48;;
45651;Laerm;31365;48.858;8.530;2023-07-13T13:56:56;57.12;31.68;73.59;;
45651;Laerm;31365;48.858;8.530;2023-07-13T13:59:26;60.84;35.94;76.94;;
45651;Laerm;31365;48.858;8.530;2023-07-13T14:04:26;57.64;29.92;71.65;;
45651;Laerm;31365;48.858;8.530;2023-07-13T14:06:57;58.84;39.58;76.58;;
45651;Laerm;31365;48.858;8.530;2023-07-13T14:09:25;58.61;39.81;71.07;;
45651;Laerm;31365;48.858;8.530;2023-07-13T14:11:53;60.45;38.21;75.44;;
45651;Laerm;31365;48.858;8.530;2023-07-13T14:14:25;66.00;43.29;83.37;;
45651;Laerm;31365;48.858;8.530;2023-07-13T14:16:55;56.97;33.90;68.30;;
45651;Laerm;31365;48.858;8.530;2023-07-13T14:19:24;58.36;41.94;69.72;;
45651;Laerm;31365;48.858;8.530;2023-07-13T14:21:54;63.41;41.06;82.20;;
45651;Laerm;31365;48.858;8.530;2023-07-13T14:24:24;58.62;39.89;69.03;;
45651;Laerm;31365;48.858;8.530;2023-07-13T14:26:53;55.56;23.90;68.27;;
45651;Laerm;31365;48.858;8.530;2023-07-13T14:29:21;56.58;5.00;70.88;;
45651;Laerm;31365;48.858;8.530;2023-07-13T14:31:51;59.78;39.08;70.05;;